createdAt,value
2023-01-30T00:02:16.400Z,98733.00
2023-01-30T00:04:51.303Z,98723.00
2023-01-30T00:07:26.204Z,98712.00
2023-01-30T00:10:01.084Z,98705.00
2023-01-30T00:12:35.987Z,98681.00
2023-01-30T00:15:10.950Z,98678.00
2023-01-30T00:17:45.850Z,98679.00
2023-01-30T00:20:21.137Z,98678.00
2023-01-30T00:23:01.111Z,98689.00
2023-01-30T00:25:36.260Z,98687.00
2023-01-30T00:28:11.220Z,98692.00
2023-01-30T00:30:53.020Z,98685.00
2023-01-30T00:33:28.398Z,98677.00
2023-01-30T00:36:03.771Z,98666.00
2023-01-30T00:38:38.691Z,98660.00
2023-01-30T00:41:16.826Z,98672.00
2023-01-30T00:44:10.022Z,98672.00
2023-01-30T00:47:06.124Z,98681.00
2023-01-30T00:49:42.311Z,98683.00
2023-01-30T00:52:17.236Z,98701.00
2023-01-30T00:54:52.413Z,98700.00
2023-01-30T00:57:27.308Z,98710.00
2023-01-30T01:00:02.261Z,98730.00
2023-01-30T01:02:37.185Z,98743.00
2023-01-30T01:05:12.097Z,98745.00
2023-01-30T01:07:46.984Z,98747.00
2023-01-30T01:10:22.688Z,98751.00
2023-01-30T01:12:57.579Z,98748.00
2023-01-30T01:15:33.082Z,98743.00
2023-01-30T01:18:08.234Z,98734.00
2023-01-30T01:20:43.173Z,98736.00
2023-01-30T01:23:18.303Z,98743.00
2023-01-30T01:25:53.244Z,98749.00
2023-01-30T01:28:28.097Z,98753.00
2023-01-30T01:31:09.977Z,98766.00
2023-01-30T01:33:44.926Z,98766.00
2023-01-30T01:36:50.011Z,98761.00
2023-01-30T01:39:14.695Z,98745.00
2023-01-30T01:41:50.198Z,98739.00
2023-01-30T01:44:25.236Z,98747.00
2023-01-30T01:47:00.451Z,98751.00
2023-01-30T01:49:37.626Z,98750.00
2023-01-30T01:52:16.031Z,98741.00
2023-01-30T01:54:57.443Z,98747.00
2023-01-30T01:57:45.248Z,98720.00
2023-01-30T02:00:22.006Z,98739.00
2023-01-30T02:03:01.943Z,98750.00
2023-01-30T02:05:43.899Z,98756.00
2023-01-30T02:08:29.530Z,98754.00
2023-01-30T02:11:19.646Z,98748.00
2023-01-30T02:13:55.728Z,98733.00
2023-01-30T02:16:30.684Z,98736.00
2023-01-30T02:19:36.800Z,98725.00
2023-01-30T02:22:46.043Z,98712.00
2023-01-30T02:26:12.966Z,98713.00
2023-01-30T02:29:34.797Z,98691.00
2023-01-30T02:33:01.293Z,98707.00
2023-01-30T02:35:50.976Z,98708.00
2023-01-30T02:38:50.641Z,98719.00
2023-01-30T02:42:18.872Z,98678.00
2023-01-30T02:45:12.952Z,98657.00
2023-01-30T02:47:53.898Z,98670.00
2023-01-30T02:50:48.354Z,98671.00
2023-01-30T02:53:24.152Z,98663.00
2023-01-30T02:55:59.023Z,98664.00
2023-01-30T02:58:44.004Z,98660.00
2023-01-30T03:01:44.897Z,98659.00
2023-01-30T03:05:11.977Z,98655.00
2023-01-30T03:08:28.319Z,98661.00
2023-01-30T03:11:08.752Z,98642.00
2023-01-30T03:13:53.191Z,98628.00
2023-01-30T03:16:37.933Z,98623.00
2023-01-30T03:19:14.161Z,98590.00
2023-01-30T03:21:49.425Z,98582.00
2023-01-30T03:24:26.205Z,98553.00
2023-01-30T03:27:09.587Z,98529.00
2023-01-30T03:29:45.051Z,98511.00
2023-01-30T03:32:19.889Z,98509.00
2023-01-30T03:34:54.796Z,98523.00
2023-01-30T03:37:29.905Z,98541.00
2023-01-30T03:40:05.845Z,98547.00
2023-01-30T03:42:41.003Z,98556.00
2023-01-30T03:45:17.686Z,98577.00
2023-01-30T03:47:54.713Z,98559.00
2023-01-30T03:50:29.597Z,98567.00
2023-01-30T03:53:05.208Z,98571.00
2023-01-30T03:55:40.474Z,98566.00
2023-01-30T03:58:15.391Z,98555.00
2023-01-30T04:00:50.227Z,98563.00
2023-01-30T04:03:25.245Z,98550.00
2023-01-30T04:06:06.767Z,98562.00
2023-01-30T04:08:41.805Z,98562.00
2023-01-30T04:11:21.994Z,98572.00
2023-01-30T04:13:56.976Z,98559.00
2023-01-30T04:16:32.556Z,98553.00
2023-01-30T04:19:26.087Z,98551.00
2023-01-30T04:22:01.023Z,98542.00
2023-01-30T04:24:36.482Z,98559.00
2023-01-30T04:27:11.551Z,98553.00
2023-01-30T04:29:56.353Z,98557.00
2023-01-30T04:32:31.388Z,98549.00
2023-01-30T04:35:07.713Z,98539.00
2023-01-30T04:37:42.990Z,98557.00
2023-01-30T04:40:20.968Z,98550.00
2023-01-30T04:42:55.815Z,98554.00
2023-01-30T04:45:44.991Z,98547.00
2023-01-30T04:48:23.078Z,98550.00
2023-01-30T04:50:58.833Z,98542.00
2023-01-30T04:53:33.812Z,98542.00
2023-01-30T04:56:09.656Z,98545.00
2023-01-30T04:58:44.502Z,98551.00
2023-01-30T05:01:26.515Z,98548.00
2023-01-30T05:04:02.418Z,98538.00
2023-01-30T05:06:37.361Z,98542.00
2023-01-30T05:09:12.342Z,98541.00
2023-01-30T05:11:47.183Z,98534.00
2023-01-30T05:14:22.245Z,98535.00
2023-01-30T05:16:57.100Z,98509.00
2023-01-30T05:19:31.911Z,98503.00
2023-01-30T05:22:06.825Z,98506.00
2023-01-30T05:24:41.745Z,98503.00
2023-01-30T05:27:16.647Z,98504.00
2023-01-30T05:29:51.485Z,98512.00
2023-01-30T05:32:27.282Z,98505.00
2023-01-30T05:35:02.202Z,98514.00
2023-01-30T05:37:37.901Z,98508.00
2023-01-30T05:40:13.453Z,98497.00
2023-01-30T05:42:48.331Z,98503.00
2023-01-30T05:45:23.186Z,98487.00
2023-01-30T05:48:01.269Z,98498.00
2023-01-30T05:50:36.530Z,98505.00
2023-01-30T05:53:11.979Z,98513.00
2023-01-30T05:55:46.867Z,98510.00
2023-01-30T05:58:21.976Z,98510.00
2023-01-30T06:01:10.821Z,98518.00
2023-01-30T06:03:45.892Z,98513.00
2023-01-30T06:06:22.260Z,98512.00
2023-01-30T06:08:57.499Z,98498.00
2023-01-30T06:11:32.422Z,98500.00
2023-01-30T06:14:07.468Z,98506.00
2023-01-30T06:16:43.066Z,98498.00
2023-01-30T06:19:18.048Z,98488.00
2023-01-30T06:21:53.281Z,98482.00
2023-01-30T06:24:28.143Z,98491.00
2023-01-30T06:27:03.053Z,98478.00
2023-01-30T06:29:37.942Z,98477.00
2023-01-30T06:32:13.000Z,98472.00
2023-01-30T06:34:47.945Z,98472.00
2023-01-30T06:37:24.997Z,98466.00
2023-01-30T06:39:59.955Z,98454.00
2023-01-30T06:42:34.888Z,98460.00
2023-01-30T06:45:10.498Z,98463.00
2023-01-30T06:47:51.597Z,98467.00
2023-01-30T06:50:28.819Z,98461.00
2023-01-30T06:53:06.576Z,98470.00
2023-01-30T06:55:42.139Z,98465.00
2023-01-30T06:58:17.912Z,98476.00
2023-01-30T07:00:53.887Z,98467.00
2023-01-30T07:03:28.843Z,98471.00
2023-01-30T07:06:03.926Z,98482.00
2023-01-30T07:08:38.920Z,98476.00
2023-01-30T07:11:13.829Z,98478.00
2023-01-30T07:13:48.757Z,98494.00
2023-01-30T07:16:29.089Z,98478.00
2023-01-30T07:19:04.141Z,98493.00
2023-01-30T07:21:39.089Z,98492.00
2023-01-30T07:24:14.064Z,98505.00
2023-01-30T07:26:49.240Z,98506.00
2023-01-30T07:29:24.116Z,98517.00
2023-01-30T07:31:59.140Z,98501.00
2023-01-30T07:34:34.376Z,98493.00
2023-01-30T07:37:09.281Z,98510.00
2023-01-30T07:39:44.223Z,98514.00
2023-01-30T07:42:19.164Z,98520.00
2023-01-30T07:44:54.255Z,98520.00
2023-01-30T07:47:29.212Z,98530.00
2023-01-30T07:50:04.799Z,98527.00
2023-01-30T07:52:39.709Z,98536.00
2023-01-30T07:55:14.712Z,98525.00
2023-01-30T07:57:49.688Z,98520.00
2023-01-30T08:00:25.066Z,98512.00
2023-01-30T08:03:00.274Z,98498.00
2023-01-30T08:05:35.210Z,98510.00
2023-01-30T08:08:10.104Z,98507.00
2023-01-30T08:10:45.356Z,98503.00
2023-01-30T08:13:20.309Z,98510.00
2023-01-30T08:15:55.201Z,98530.00
2023-01-30T08:18:32.026Z,98541.00
2023-01-30T08:21:07.409Z,98542.00
2023-01-30T08:23:42.474Z,98512.00
2023-01-30T08:26:17.530Z,98509.00
2023-01-30T08:28:52.451Z,98509.00
2023-01-30T08:31:27.343Z,98494.00
2023-01-30T08:34:02.294Z,98466.00
2023-01-30T08:36:37.173Z,98448.00
2023-01-30T08:39:12.408Z,98462.00
2023-01-30T08:41:47.251Z,98474.00
2023-01-30T08:44:22.208Z,98476.00
2023-01-30T08:46:57.145Z,98463.00
2023-01-30T08:49:32.161Z,98477.00
2023-01-30T08:52:07.117Z,98477.00
2023-01-30T08:54:42.022Z,98463.00
2023-01-30T08:57:16.995Z,98452.00
2023-01-30T08:59:52.196Z,98432.00
2023-01-30T09:02:27.492Z,98432.00
2023-01-30T09:05:02.843Z,98423.00
2023-01-30T09:07:37.941Z,98406.00
2023-01-30T09:10:13.071Z,98405.00
2023-01-30T09:12:48.048Z,98413.00
2023-01-30T09:15:23.126Z,98417.00
2023-01-30T09:17:58.334Z,98419.00
2023-01-30T09:20:33.287Z,98413.00
2023-01-30T09:23:08.306Z,98427.00
2023-01-30T09:25:46.916Z,98422.00
2023-01-30T09:28:21.822Z,98411.00
2023-01-30T09:30:58.755Z,98425.00
2023-01-30T09:33:33.757Z,98420.00
2023-01-30T09:36:09.243Z,98430.00
2023-01-30T09:38:44.235Z,98429.00
2023-01-30T09:41:47.179Z,98413.00
2023-01-30T09:45:04.469Z,98410.00
2023-01-30T09:48:42.451Z,98407.00
2023-01-30T09:51:34.256Z,98405.00
2023-01-30T09:54:28.468Z,98402.00
2023-01-30T09:57:20.549Z,98403.00
2023-01-30T10:00:36.757Z,98377.00
2023-01-30T10:03:17.342Z,98378.00
2023-01-30T10:06:10.016Z,98371.00
2023-01-30T10:09:09.062Z,98371.00
2023-01-30T10:12:16.875Z,98371.00
2023-01-30T10:15:14.630Z,98353.00
2023-01-30T10:18:21.179Z,98372.00
2023-01-30T10:21:36.545Z,98356.00
2023-01-30T10:24:43.710Z,98351.00
2023-01-30T10:27:19.776Z,98360.00
2023-01-30T10:29:58.400Z,98363.00
2023-01-30T10:32:48.732Z,98351.00
2023-01-30T10:35:31.142Z,98356.00
2023-01-30T10:38:18.379Z,98366.00
2023-01-30T10:41:05.087Z,98366.00
2023-01-30T10:43:58.796Z,98355.00
2023-01-30T10:46:48.987Z,98347.00
2023-01-30T10:49:41.343Z,98341.00
2023-01-30T10:52:24.211Z,98341.00
2023-01-30T10:55:36.076Z,98349.00
2023-01-30T10:58:28.071Z,98345.00
2023-01-30T11:01:26.509Z,98354.00
2023-01-30T11:04:27.736Z,98356.00
2023-01-30T11:07:03.691Z,98357.00
2023-01-30T11:09:46.153Z,98355.00
2023-01-30T11:12:21.090Z,98348.00
2023-01-30T11:15:04.171Z,98369.00
2023-01-30T11:17:45.075Z,98366.00
2023-01-30T11:20:24.316Z,98351.00
2023-01-30T11:23:27.597Z,98354.00
2023-01-30T11:26:11.387Z,98339.00
2023-01-30T11:28:48.775Z,98342.00
2023-01-30T11:31:41.040Z,98340.00
2023-01-30T11:34:20.103Z,98365.00
2023-01-30T11:37:13.013Z,98358.00
2023-01-30T11:39:51.509Z,98356.00
2023-01-30T11:42:31.871Z,98357.00
2023-01-30T11:45:17.767Z,98362.00
2023-01-30T11:48:03.833Z,98370.00
2023-01-30T11:50:49.329Z,98364.00
2023-01-30T11:53:48.132Z,98354.00
2023-01-30T11:56:33.905Z,98356.00
2023-01-30T11:59:31.017Z,98349.00
2023-01-30T12:02:16.737Z,98354.00
2023-01-30T12:05:08.555Z,98343.00
2023-01-30T12:07:48.914Z,98341.00
2023-01-30T12:10:31.805Z,98345.00
2023-01-30T12:13:22.839Z,98339.00
2023-01-30T12:16:22.516Z,98336.00
2023-01-30T12:19:31.517Z,98346.00
2023-01-30T12:22:32.233Z,98344.00
2023-01-30T12:25:19.322Z,98332.00
2023-01-30T12:28:23.625Z,98321.00
2023-01-30T12:31:27.958Z,98330.00
2023-01-30T12:34:04.104Z,98333.00
2023-01-30T12:36:50.214Z,98351.00
2023-01-30T12:40:13.300Z,98345.00
2023-01-30T12:43:24.437Z,98338.00
2023-01-30T12:46:27.007Z,98344.00
2023-01-30T12:49:39.209Z,98343.00
2023-01-30T12:52:26.175Z,98366.00
2023-01-30T12:55:35.428Z,98365.00
2023-01-30T12:58:43.608Z,98372.00
2023-01-30T13:01:48.051Z,98361.00
2023-01-30T13:05:05.132Z,98371.00
2023-01-30T13:08:12.063Z,98360.00
2023-01-30T13:11:02.206Z,98354.00
2023-01-30T13:13:45.957Z,98356.00
2023-01-30T13:16:40.016Z,98349.00
2023-01-30T13:19:47.864Z,98348.00
2023-01-30T13:22:52.547Z,98344.00
2023-01-30T13:26:05.557Z,98352.00
2023-01-30T13:28:46.876Z,98352.00
2023-01-30T13:31:27.056Z,98363.00
2023-01-30T13:34:32.006Z,98360.00
2023-01-30T13:37:18.960Z,98381.00
2023-01-30T13:40:03.623Z,98380.00
2023-01-30T13:42:50.536Z,98388.00
2023-01-30T13:45:41.222Z,98407.00
2023-01-30T13:48:49.797Z,98409.00
2023-01-30T13:51:42.041Z,98417.00
2023-01-30T13:54:43.680Z,98413.00
2023-01-30T13:57:35.014Z,98414.00
2023-01-30T14:00:31.118Z,98415.00
2023-01-30T14:03:06.027Z,98430.00
2023-01-30T14:06:01.055Z,98421.00
2023-01-30T14:08:50.212Z,98442.00
2023-01-30T14:11:34.497Z,98408.00
2023-01-30T14:14:18.551Z,98412.00
2023-01-30T14:16:57.266Z,98416.00
2023-01-30T14:20:05.101Z,98411.00
2023-01-30T14:23:01.592Z,98405.00
2023-01-30T14:25:52.465Z,98408.00
2023-01-30T14:28:30.429Z,98418.00
2023-01-30T14:31:07.552Z,98422.00
2023-01-30T14:33:51.360Z,98421.00
2023-01-30T14:36:26.145Z,98424.00
2023-01-30T14:39:40.065Z,98445.00
2023-01-30T14:42:26.777Z,98437.00
2023-01-30T14:45:16.858Z,98434.00
2023-01-30T14:48:36.906Z,98441.00
2023-01-30T14:51:43.523Z,98443.00
2023-01-30T14:54:25.436Z,98448.00
2023-01-30T14:57:05.961Z,98493.00
2023-01-30T15:00:19.088Z,98455.00
2023-01-30T15:03:00.554Z,98479.00
2023-01-30T15:05:43.563Z,98489.00
2023-01-30T15:08:25.820Z,98490.00
2023-01-30T15:11:26.078Z,98491.00
2023-01-30T15:14:13.200Z,98506.00
2023-01-30T15:17:19.448Z,98504.00
2023-01-30T15:20:02.674Z,98487.00
2023-01-30T15:23:04.100Z,98505.00
2023-01-30T15:25:47.885Z,98498.00
2023-01-30T15:28:35.005Z,98514.00
2023-01-30T15:31:22.879Z,98508.00
2023-01-30T15:33:57.989Z,98488.00
2023-01-30T15:36:36.115Z,98499.00
2023-01-30T15:39:24.857Z,98514.00
2023-01-30T15:42:07.299Z,98508.00
2023-01-30T15:45:01.656Z,98502.00
2023-01-30T15:47:50.631Z,98500.00
2023-01-30T15:50:25.467Z,98508.00
2023-01-30T15:53:01.072Z,98513.00
2023-01-30T15:55:37.314Z,98504.00
2023-01-30T15:58:19.591Z,98507.00
2023-01-30T16:00:59.433Z,98509.00
2023-01-30T16:03:40.875Z,98520.00
2023-01-30T16:06:23.487Z,98514.00
2023-01-30T16:08:58.262Z,98512.00
2023-01-30T16:11:43.263Z,98515.00
2023-01-30T16:14:21.457Z,98520.00
2023-01-30T16:17:04.167Z,98515.00
2023-01-30T16:19:39.788Z,98504.00
2023-01-30T16:22:20.661Z,98524.00
2023-01-30T16:24:56.029Z,98531.00
2023-01-30T16:27:34.343Z,98537.00
2023-01-30T16:30:10.569Z,98551.00
2023-01-30T16:32:46.179Z,98547.00
2023-01-30T16:35:27.031Z,98574.00
2023-01-30T16:38:03.322Z,98572.00
2023-01-30T16:40:46.553Z,98567.00
2023-01-30T16:43:24.820Z,98579.00
2023-01-30T16:46:41.486Z,98594.00
2023-01-30T16:49:36.491Z,98595.00
2023-01-30T16:52:16.808Z,98598.00
2023-01-30T16:54:54.923Z,98608.00
2023-01-30T16:57:37.562Z,98610.00
2023-01-30T17:00:32.655Z,98593.00
2023-01-30T17:03:26.662Z,98598.00
2023-01-30T17:06:08.541Z,98606.00
2023-01-30T17:08:49.372Z,98613.00
2023-01-30T17:11:41.260Z,98610.00
2023-01-30T17:14:32.912Z,98608.00
2023-01-30T17:17:09.835Z,98625.00
2023-01-30T17:19:47.997Z,98609.00
2023-01-30T17:22:24.483Z,98611.00
2023-01-30T17:25:05.015Z,98613.00
2023-01-30T17:27:40.182Z,98630.00
2023-01-30T17:30:16.981Z,98638.00
2023-01-30T17:32:51.930Z,98658.00
2023-01-30T17:35:26.862Z,98658.00
2023-01-30T17:38:05.577Z,98661.00
2023-01-30T17:40:41.561Z,98662.00
2023-01-30T17:43:17.960Z,98663.00
2023-01-30T17:45:52.886Z,98670.00
2023-01-30T17:48:27.834Z,98682.00
2023-01-30T17:51:03.149Z,98684.00
2023-01-30T17:53:38.270Z,98684.00
2023-01-30T17:56:27.713Z,98687.00
2023-01-30T17:59:08.440Z,98681.00
2023-01-30T18:01:49.637Z,98686.00
2023-01-30T18:04:24.581Z,98699.00
2023-01-30T18:07:04.284Z,98701.00
2023-01-30T18:09:39.321Z,98692.00
2023-01-30T18:12:14.167Z,98701.00
2023-01-30T18:14:49.125Z,98698.00
2023-01-30T18:17:28.378Z,98709.00
2023-01-30T18:20:03.728Z,98722.00
2023-01-30T18:22:38.610Z,98719.00
2023-01-30T18:25:14.516Z,98720.00
2023-01-30T18:27:49.406Z,98723.00
2023-01-30T18:30:25.003Z,98714.00
2023-01-30T18:32:59.921Z,98726.00
2023-01-30T18:35:37.319Z,98733.00
2023-01-30T18:38:12.218Z,98744.00
2023-01-30T18:40:48.072Z,98747.00
2023-01-30T18:43:23.495Z,98756.00
2023-01-30T18:46:10.126Z,98758.00
2023-01-30T18:48:47.055Z,98754.00
2023-01-30T18:51:28.854Z,98759.00
2023-01-30T18:54:03.807Z,98775.00
2023-01-30T18:56:39.136Z,98769.00
2023-01-30T18:59:13.988Z,98765.00
2023-01-30T19:01:49.348Z,98776.00
2023-01-30T19:04:24.306Z,98777.00
2023-01-30T19:06:59.237Z,98765.00
2023-01-30T19:09:34.796Z,98766.00
2023-01-30T19:12:28.355Z,98762.00
2023-01-30T19:15:03.708Z,98765.00
2023-01-30T19:17:38.785Z,98774.00
2023-01-30T19:20:13.802Z,98785.00
2023-01-30T19:22:49.555Z,98785.00
2023-01-30T19:25:24.698Z,98800.00
2023-01-30T19:27:59.685Z,98816.00
2023-01-30T19:30:36.377Z,98801.00
2023-01-30T19:33:14.954Z,98810.00
2023-01-30T19:35:50.500Z,98807.00
2023-01-30T19:38:27.231Z,98796.00
2023-01-30T19:41:02.131Z,98797.00
2023-01-30T19:43:41.022Z,98808.00
2023-01-30T19:46:16.245Z,98809.00
2023-01-30T19:48:51.949Z,98802.00
2023-01-30T19:51:30.495Z,98806.00
2023-01-30T19:54:08.136Z,98809.00
2023-01-30T19:56:47.389Z,98816.00
2023-01-30T19:59:22.405Z,98822.00
2023-01-30T20:01:58.327Z,98817.00
2023-01-30T20:04:33.260Z,98826.00
2023-01-30T20:07:08.128Z,98826.00
2023-01-30T20:09:43.047Z,98836.00
2023-01-30T20:12:18.047Z,98833.00
2023-01-30T20:14:53.198Z,98837.00
2023-01-30T20:17:28.466Z,98840.00
2023-01-30T20:20:03.680Z,98847.00
2023-01-30T20:22:38.627Z,98855.00
2023-01-30T20:25:13.510Z,98860.00
2023-01-30T20:27:48.433Z,98870.00
2023-01-30T20:30:23.340Z,98868.00
2023-01-30T20:32:58.197Z,98864.00
2023-01-30T20:35:34.759Z,98871.00
2023-01-30T20:38:11.582Z,98882.00
2023-01-30T20:40:47.277Z,98875.00
2023-01-30T20:43:22.118Z,98873.00
2023-01-30T20:46:27.118Z,98877.00
2023-01-30T20:49:02.121Z,98878.00
2023-01-30T20:51:37.197Z,98874.00
2023-01-30T20:54:14.506Z,98883.00
2023-01-30T20:56:52.849Z,98873.00
2023-01-30T20:59:28.582Z,98886.00
2023-01-30T21:02:03.448Z,98881.00
2023-01-30T21:04:38.610Z,98879.00
2023-01-30T21:07:13.475Z,98891.00
2023-01-30T21:09:48.294Z,98890.00
2023-01-30T21:12:24.363Z,98897.00
2023-01-30T21:14:59.243Z,98896.00
2023-01-30T21:17:34.089Z,98895.00
2023-01-30T21:20:09.871Z,98895.00
2023-01-30T21:22:44.721Z,98894.00
2023-01-30T21:25:19.876Z,98904.00
2023-01-30T21:27:55.003Z,98906.00
2023-01-30T21:30:29.883Z,98897.00
2023-01-30T21:33:04.766Z,98899.00
2023-01-30T21:35:40.176Z,98896.00
2023-01-30T21:38:33.687Z,98897.00
2023-01-30T21:41:33.336Z,98916.00
2023-01-30T21:44:08.452Z,98920.00
2023-01-30T21:46:48.735Z,98924.00
2023-01-30T21:49:26.823Z,98939.00
2023-01-30T21:52:01.778Z,98926.00
2023-01-30T21:54:36.620Z,98923.00
2023-01-30T21:57:11.496Z,98929.00
2023-01-30T21:59:46.515Z,98925.00
2023-01-30T22:02:21.366Z,98922.00
2023-01-30T22:04:57.195Z,98927.00
2023-01-30T22:07:32.429Z,98924.00
2023-01-30T22:10:07.748Z,98935.00
2023-01-30T22:12:42.583Z,98930.00
2023-01-30T22:15:17.861Z,98931.00
2023-01-30T22:17:53.164Z,98941.00
2023-01-30T22:20:28.137Z,98939.00
2023-01-30T22:23:03.031Z,98935.00
2023-01-30T22:25:37.854Z,98946.00
2023-01-30T22:28:12.989Z,98937.00
2023-01-30T22:30:47.863Z,98944.00
2023-01-30T22:33:22.706Z,98932.00
2023-01-30T22:35:57.964Z,98925.00
2023-01-30T22:38:33.832Z,98921.00
2023-01-30T22:41:15.232Z,98929.00
2023-01-30T22:43:57.124Z,98933.00
2023-01-30T22:46:36.399Z,98936.00
2023-01-30T22:49:11.324Z,98931.00
2023-01-30T22:51:46.231Z,98943.00
2023-01-30T22:54:21.098Z,98952.00
2023-01-30T22:56:59.803Z,98935.00
2023-01-30T22:59:34.645Z,98935.00
2023-01-30T23:02:10.281Z,98949.00
2023-01-30T23:04:45.201Z,98941.00
2023-01-30T23:07:22.115Z,98937.00
2023-01-30T23:09:56.964Z,98935.00
2023-01-30T23:12:50.234Z,98949.00
2023-01-30T23:15:25.210Z,98950.00
2023-01-30T23:18:19.031Z,98948.00
2023-01-30T23:20:53.893Z,98949.00
2023-01-30T23:23:28.742Z,98958.00
2023-01-30T23:26:03.662Z,98948.00
2023-01-30T23:28:39.026Z,98948.00
2023-01-30T23:31:17.856Z,98942.00
2023-01-30T23:34:00.144Z,98940.00
2023-01-30T23:36:35.368Z,98945.00
2023-01-30T23:39:12.075Z,98947.00
2023-01-30T23:41:46.907Z,98942.00
2023-01-30T23:44:21.891Z,98941.00
2023-01-30T23:46:56.839Z,98940.00
2023-01-30T23:49:31.687Z,98947.00
2023-01-30T23:52:06.558Z,98954.00
2023-01-30T23:54:41.677Z,98938.00
2023-01-30T23:57:16.539Z,98935.00
2023-01-30T23:59:51.382Z,98927.00
